Impacts METAR Board
IDs:

KSFO - San Francisco Intl, CA, US

Updated at: 1500 UTC 23 May 2018
Potential Impact None Slight Moderate High
Time 23/03Z 23/04Z 23/05Z 23/06Z 23/07Z 23/08Z 23/09Z 23/10Z 23/11Z 23/12Z 23/13Z 23/14Z 23/15Z
Temp57 56 56 56 56 56 56 55 56 55 55 56 56
Dewpt50 51 51 51 51 50 50 51 50 51 51 51 51
Altim29.91 29.92 29.92 29.93 29.93 29.93 29.91 29.91 29.91 29.91 29.92 29.93 29.94
VIS10 10 10 10 9 10 10 10 10 9 7 10 10
CIG9 9 8 17 17 18 18 16 23 13 13 20 11
CoverOVCOVCOVCOVCOVCOVCOVCOVCOVCOVCOVCOVCOVC
FltCatIFRIFRIFRMVFRMVFRMVFRMVFRMVFRMVFRMVFRMVFRMVFRMVFR
WX--------------------------
WDir270250240240230240240230250260230230230
WSpd11 8 6 7 6 6 5 4 6 5 4 4 5
WGst-- -- -- -- -- -- -- -- -- -- -- -- --
Raw hourly METARs
KSFO 230256Z 27011KT 10SM FEW004 BKN009 OVC018 14/10 A2991 RMK AO2 SLP128 T01390100 53000
KSFO 230356Z 25008KT 10SM FEW004 BKN009 OVC018 13/11 A2992 RMK AO2 SLP130 T01330106
KSFO 230456Z 24006KT 10SM FEW004 BKN008 OVC017 13/11 A2992 RMK AO2 SLP133 T01330106
KSFO 230556Z 24007KT 10SM FEW008 SCT010 OVC017 13/11 A2993 RMK AO2 SLP134 T01330106 10150 20133 51006
KSFO 230656Z 23006KT 9SM FEW008 SCT010 OVC017 13/11 A2993 RMK AO2 SLP133 T01330106
KSFO 230756Z 24006KT 10SM FEW008 SCT013 OVC018 13/10 A2993 RMK AO2 SLP133 T01330100 401610122
KSFO 230856Z 24005KT 10SM FEW008 SCT013 OVC018 13/10 A2991 RMK AO2 SLP129 T01330100 58005
KSFO 230956Z 23004KT 10SM FEW008 SCT013 OVC016 13/11 A2991 RMK AO2 SLP127 T01280106
KSFO 231056Z 25006KT 10SM FEW008 SCT019 OVC023 13/10 A2991 RMK AO2 SLP128 T01330100
KSFO 231156Z 26005KT 9SM FEW008 BKN013 OVC024 13/11 A2991 RMK AO2 SLP128 T01280106 10133 20128 55000
KSFO 231256Z 23004KT 7SM SCT008 BKN013 OVC020 13/11 A2992 RMK AO2 SLP130 T01280106 $
KSFO 231356Z 23004KT 10SM FEW008 OVC020 13/11 A2993 RMK AO2 SLP134 T01330106 $
KSFO 231456Z 23005KT 10SM BKN011 OVC020 13/11 A2994 RMK AO2 SLP139 T01330106 53010



Page loaded:  15:03 UTC  |   08:03 AM Pacific  |   09:03 AM Mountain  |   10:03 AM Central  |   11:03 AM Eastern

 

ADVISORIES

FORECASTS

FORECASTS

OBSERVATIONS

USER TOOLS

ABOUT US